Tiempo atmosférico en la estación meteorológica de Santander, Cantabria (52 m.)



Fecha
DESCASC
Temp. máxima en grados centígrados (hora)
DESCASC
Temp. mínima en grados centígrados (hora)
DESCASC
Temp. media en grados centígrados
DESCASC
Racha de viento máxima en m/sg (hora)
DESCASC
Velocidad máxima media en intervalos de 10 minutos(hora)
DESCASC
Precipitaciones diarias en mm
DESCASC
Precipitaciones de 00:00 a 06:00 en mm
DESCASC
Precipitaciones de 06:00 a 12:00 en mm
DESCASC
Precipitaciones de 12:00 a 18:00 en mm
DESCASC
Precipitaciones de 18:00 a 24:00 en mm
DESCASC
16-01-2020 18.7 (17:40) 10.5 (00:10) 14.6 20 (17:30) 11.67 (17:40) 0 0 0 0 0
15-01-2020 15.7 (10:20) 10.6 (23:40) 13.2 20.28 (08:50) 11.94 (08:10) 0 0 0 0 0
14-01-2020 16 (15:00) 12 (00:00) 14 21.11 (12:10) 13.33 (12:10) 0 0 0 0 0
13-01-2020 15.4 (15:40) 7.4 (07:30) 11.4 15 (23:50) 10.28 (23:50) 0 0 0 0 0
12-01-2020 15 (13:50) 7.4 (00:00) 11.2 6.39 (00:50) 4.72 (09:10) 0 0 0 0 0
11-01-2020 12.7 (14:10) 6.4 (00:00) 9.5 6.67 (15:50) 5.28 (16:40) 0 0 0 0 0
10-01-2020 13 (16:40) 8.7 (00:00) 10.8 17.78 (00:10) 12.22 (00:10) 3.8 0.2 2.8 0.8 0
09-01-2020 20.2 (14:20) 10.1 (00:00) 15.2 22.5 (16:00) 15.83 (15:30) 0 0 0 0 0
08-01-2020 16.3 (13:50) 9.6 (00:00) 12.9 5.28 (16:20) 4.17 (16:40) 0 0 0 0 0
07-01-2020 13.4 (12:20) 8.2 (00:00) 10.8 6.11 (16:50) 5 (01:30) 0 0 0 0 0
06-01-2020 12.8 (14:20) 5.8 (00:00) 9.3 8.61 (10:10) 5.56 (14:40) 0 0 0 0 0
05-01-2020 11.3 (13:20) 7.2 (00:00) 9.3 13.61 (16:20) 10.28 (17:30) 0 0 0 0 0
04-01-2020 12.4 (12:10) 9.7 (00:00) 11 8.89 (01:30) 6.11 (01:30) 2.8 1.6 1 0.2 0
03-01-2020 12.6 (15:40) 8.5 (00:00) 10.6 9.72 (04:40) 7.22 (03:00) 0 0 0 0 0
02-01-2020 12.1 (14:40) 6.6 (00:00) 9.4 6.39 (15:40) 4.72 (15:30) 0 0 0 0 0
01-01-2020 13.4 (12:20) 8.7 (00:00) 11 6.39 (06:30) 4.72 (05:40) 0 0 0 0 0
31-12-2019 14.8 (15:10) 9.8 (00:00) 12.3 7.22 (00:40) 5.28 (00:40) 0 0 0 0 0
30-12-2019 -- (--) -- (--) -- -- (--) -- (--) -- 0 0 0 --
29-12-2019 12.9 (14:30) 6.6 (00:00) 9.7 10.56 (15:20) 8.61 (15:20) 0 0 0 0 0
28-12-2019 13.1 (11:50) 7.7 (00:00) 10.4 13.06 (08:20) 10.28 (15:40) 0 0 0 0 0
27-12-2019 13 (14:00) 6.9 (00:00) 10 15.28 (16:30) 12.22 (16:30) 0 0 0 0 0
26-12-2019 19.3 (00:50) 9.9 (00:00) 14.6 13.61 (01:50) 8.61 (01:50) 0 0 0 0 0
25-12-2019 19.1 (23:50) 10.5 (00:00) 14.8 10.56 (23:40) 7.22 (23:50) 0 0 0 0 0
24-12-2019 21.8 (14:10) 12.5 (00:00) 17.1 10 (02:00) 7.5 (03:10) 0 0 0 0 0
23-12-2019 16.6 (15:00) 11.5 (00:00) 14.1 16.67 (00:10) 11.11 (00:10) 0 0 0 0 0
22-12-2019 15.4 (00:40) 11.8 (00:00) 13.6 30 (01:00) 19.44 (01:00) 3 1.2 0 1.6 0.2
21-12-2019 22.6 (13:20) 9.7 (00:00) 16.2 26.94 (22:10) 17.22 (22:20) 2.6 0 0 2 0.6

Gráficas

Temp. máximas Temp. mínimas Temp. medias Precipitaciones Rachas de viento máximas Velocidades máximas media en intervalos de 10 minutos

Datos horarios

Fecha y hora oficial Temperatura (ºC) Velocidad del viento (km/h) Dirección del viento Racha (km/h) Dirección de racha Precipitación (mm) Presión (hPa) Tendencia (hPa) Humedad (%)
2020-01-19 23:00:00 8.8 49 Nordeste 70 Este 0 1030.9 0.9 66
2020-01-19 22:00:00 9 50 Nordeste 72 Nordeste 0 1030.8 1.1 62
2020-01-19 21:00:00 9.1 53 Nordeste 67 Nordeste 0 1030.6 0.9 66
2020-01-19 20:00:00 9.3 48 Nordeste 65 Nordeste 0 1030 0.6 67
2020-01-19 19:00:00 9.4 44 Nordeste 58 Nordeste 0 1029.7 0.6 70
2020-01-19 18:00:00 9.2 38 Nordeste 54 Nordeste 0 1029.7 0.7 70
2020-01-19 17:00:00 9.4 39 Nordeste 54 Nordeste 0 1029.4 0.3 67
2020-01-19 16:00:00 9.5 40 Nordeste 54 Nordeste 0 1029.1 0.2 66
2020-01-19 15:00:00 10.1 34 Nordeste 51 Nordeste 0 1029 0.2 62
2020-01-19 14:00:00 10.2 35 Nordeste 55 Nordeste 0 1029.1 1.4 59
2020-01-19 13:00:00 10.2 41 Nordeste 57 Nordeste 0 1028.9 2.5 61
2020-01-19 12:00:00 9.8 43 Nordeste 64 Nordeste 0 1028.8 3.8 73
2020-01-19 11:00:00 10.1 42 Nordeste 55 Nordeste 0 1027.7 4.3 71
2020-01-19 10:00:00 10 41 Nordeste 57 Nordeste 0 1026.4 4.3 70
2020-01-19 09:00:00 9.9 40 Nordeste 53 Nordeste 0 1025 4.2 75
2020-01-19 08:00:00 9.8 41 Nordeste 55 Nordeste 0 1023.4 3.6 76
2020-01-19 07:00:00 10.3 44 Nordeste 60 Nordeste 0 1022.1 3.1 77
2020-01-19 06:00:00 10.3 47 Nordeste 60 Nordeste 0 1020.8 3.1 84
2020-01-19 05:00:00 10.3 48 Nordeste 60 Nordeste 0 1019.8 3.6 81
2020-01-19 04:00:00 9.6 47 Nordeste 62 Nordeste 0 1019 3.1 84
2020-01-19 03:00:00 9.8 45 Nordeste 62 Nordeste 0.2 1017.7 2.6 89
2020-01-19 02:00:00 10.6 36 Nordeste 52 Nordeste 0.4 1016.2 1.8 91
2020-01-19 01:00:00 10.8 30 Noroeste 43 Noroeste 0.2 1015.9 1.9 88
2020-01-19 00:00:00 10.8 28 Oeste 40 Oeste 0 1015.1 1.6 85
2020-01-18 23:00:00 10.8 23 Oeste 46 Oeste 1 1014.4 1.6 85
2020-01-18 22:00:00 11.2 31 Oeste 46 Oeste 0 1014 1.9 80
2020-01-18 21:00:00 11.2 30 Oeste 53 Noroeste 0 1013.5 1.3 82
2020-01-18 20:00:00 10.9 21 Oeste 45 Noroeste 0.2 1012.8 0.9 83
2020-01-18 19:00:00 10.3 15 Sudoeste 33 Sudoeste 0 1012.1 4.8 79
2020-01-18 18:00:00 9.9 17 Sudoeste 53 Oeste 1.4 1012.2 4.7 84
2020-01-18 17:00:00 10.3 44 Noroeste 100 Noroeste 0.6 1011.9 2.8 88
2020-01-18 16:00:00 15.8 27 Sur 56 Sur 0 1007.3 -3 53
2020-01-18 15:00:00 15.9 38 Sur 71 Sur 0 1007.5 -4.2 52
2020-01-18 14:00:00 15.6 37 Sur 64 Sur 0 1009.1 -4.6 52
2020-01-18 13:00:00 15.2 38 Sudoeste 67 Sur 0 1010.3 -4.2 49
2020-01-18 12:00:00 14.2 32 Sudoeste 59 Sur 0 1011.7 -4 50
2020-01-18 11:00:00 13.5 31 Sur 50 Sur 0 1013.7 -3.5 50
2020-01-18 10:00:00 12.5 32 Sur 52 Sur 0 1014.5 -3.7 51
2020-01-18 09:00:00 10.9 17 Sur 31 Sur 0 1015.7 -3.4 58
2020-01-18 08:00:00 8.8 15 Sudeste 22 Sudeste 0 1017.2 -3.1 74
2020-01-18 07:00:00 8.9 15 Sudeste 24 Sudeste 0 1018.2 -3 75
2020-01-18 06:00:00 9.6 17 Este 26 Este 0 1019.1 -2.7 74
2020-01-18 05:00:00 9.1 11 Este 15 Sudeste 0 1020.3 -2.6 76
2020-01-18 04:00:00 9.1 14 Sudeste 25 Sudeste 0 1021.2 -2.3 75
2020-01-18 03:00:00 9.6 17 Este 29 Este 0 1021.8 -2.4 74
2020-01-18 02:00:00 9 11 Sudeste 19 Sudeste 0 1022.9 -1.9 84
2020-01-18 01:00:00 9 13 Sudeste 19 Sudeste 0 1023.5 -1.7 86
2020-01-18 00:00:00 8.9 10 Sudeste 13 Sur 0 1024.2 -1.3 85
2020-01-17 23:00:00 9.4 9 Sudeste 12 Sur 0 1024.8 -0.8 82
2020-01-17 22:00:00 9.9 11 Sur 15 Sur 0 1025.2 -0.2 79
2020-01-17 21:00:00 10.2 9 Sur 23 Noroeste 0 1025.5 0.7 75
2020-01-17 20:00:00 10.9 14 Noroeste 24 Noroeste 0 1025.6 1.6 74
2020-01-17 19:00:00 10.7 19 Oeste 34 Noroeste 0 1025.4 2.3 71
2020-01-17 18:00:00 10.8 26 Noroeste 46 Noroeste 0 1024.8 2 73
2020-01-17 17:00:00 11.4 29 Noroeste 53 Oeste 0 1024 1.2 70
2020-01-17 16:00:00 12 37 Noroeste 55 Noroeste 0 1023.1 0.4 61
2020-01-17 15:00:00 12.3 33 Noroeste 49 Oeste 0 1022.8 0.2 59
2020-01-17 14:00:00 12.6 30 Oeste 46 Oeste 0 1022.8 1 61
2020-01-17 13:00:00 12.4 31 Oeste 47 Oeste 0 1022.7 2.1 63
2020-01-17 12:00:00 11.5 27 Noroeste 56 Noroeste 0 1022.6 3 73
2020-01-17 11:00:00 11.1 38 Noroeste 58 Noroeste 0 1021.8 3.1 71
2020-01-17 10:00:00 10.8 44 Noroeste 71 Noroeste 0.2 1020.6 2.9 76
2020-01-17 09:00:00 10.9 28 Oeste 45 Oeste 0.2 1019.6 2.8 79
2020-01-17 08:00:00 10.3 16 Oeste 41 Oeste 1 1018.7 3.1 83
2020-01-17 07:00:00 10.4 33 Oeste 50 Oeste 1 1017.7 2.1 86
2020-01-17 06:00:00 10.2 23 Oeste 45 Oeste 3.2 1016.8 1.9 89
2020-01-17 05:00:00 12.1 10 Sudoeste 22 Sudoeste 0 1015.6 1.2 82
2020-01-17 04:00:00 11.6 9 Oeste 18 Sur 0 1015.6 2.7 90
2020-01-17 03:00:00 11.7 12 Sur 22 Sur 0 1014.9 3.1 89
2020-01-17 02:00:00 12.2 15 Noroeste 29 Noroeste 0 1014.4 2 88
2020-01-17 01:00:00 12.5 14 Noroeste 26 Norte 0 1012.9 -0.4 91
2020-01-17 00:00:00 12 3 Nordeste 14 Nordeste 0 1011.8 0.4 92
2020-01-16 23:00:00 12.3 10 Nordeste 18 Noroeste 0 1012.4 2.3 91
2020-01-16 22:00:00 13 10 Noroeste 42 Noroeste 0 1013.3 3.5 87
2020-01-16 21:00:00 16.9 22 Sudoeste 51 Sudoeste 0 1011.4 1.7 41
2020-01-16 20:00:00 17.2 26 Sudoeste 50 Sur 0 1010.1 0.8 38
2020-01-16 19:00:00 17.6 35 Sur 55 Sur 0 1009.8 0.4 39
2020-01-16 18:00:00 18 25 Sur 72 Sudoeste 0 1009.7 0.8 39
2020-01-16 17:00:00 18.5 29 Sudoeste 68 Sur 0 1009.3 -0.9 38
2020-01-16 16:00:00 18.5 25 Sudoeste 54 Sudoeste 0 1009.4 -1.8 37
2020-01-16 15:00:00 18.1 28 Sudoeste 59 Sudoeste 0 1008.9 -3.3 42
2020-01-16 14:00:00 17.5 27 Sudoeste 52 Sur 0 1010.2 -1.8 49
2020-01-16 13:00:00 18 37 Sudoeste 62 Sur 0 1011.2 -0.3 49
2020-01-16 12:00:00 17.4 24 Sudoeste 47 Sur 0 1012.2 0.8 51
2020-01-16 11:00:00 17 32 Sur 50 Sudoeste 0 1012 0.7 53
2020-01-16 10:00:00 16.9 30 Sur 47 Sur 0 1011.5 0.7 54
2020-01-16 09:00:00 16.4 29 Sur 49 Sur 0 1011.4 0.4 57
2020-01-16 08:00:00 16.4 35 Sur 53 Sur 0 1011.3 0.2 56
2020-01-16 07:00:00 16.2 30 Sur 51 Sur 0 1010.8 -0.9 58
2020-01-16 06:00:00 16.5 22 Sur 44 Sur 0 1011 -0.4 56
2020-01-16 05:00:00 16.9 28 Sur 50 Sur 0 1011.1 -0.9 56
2020-01-16 04:00:00 16.8 28 Sur 49 Sur 0 1011.7 -1.1 56
2020-01-16 03:00:00 16.3 31 Sur 54 Sur 0 1011.4 -2.5 59
2020-01-16 02:00:00 15.9 30 Sur 51 Sur 0 1012 -2.2 61
2020-01-16 01:00:00 15 27 Sur 44 Sur 0 1012.8 -1.8 62
2020-01-16 00:00:00 10.6 9 Sudeste 19 Este 0 1013.9 -1.1 92
2020-01-15 23:00:00 11.3 14 Sudeste 26 Este 0 1014.2 -1.4 93
2020-01-15 22:00:00 11.4 13 Este 23 Este 0 1014.6 -1.1 92
2020-01-15 21:00:00 11.1 15 Este 23 Este 0 1015 -0.2 92
2020-01-15 20:00:00 11 12 Sudeste 16 Este 0 1015.6 1.1 92
2020-01-15 19:00:00 11.4 6 Este 10 Este 0 1015.7 1.9 88
2020-01-15 18:00:00 12.2 4 Este 6 Norte 0 1015.2 2 85
2020-01-15 17:00:00 12.6 6 Noroeste 14 Noroeste 0 1014.5 1.6 85
2020-01-15 16:00:00 12.9 11 Noroeste 23 Noroeste 0 1013.8 1.1 83
2020-01-15 15:00:00 14 14 Noroeste 20 Noroeste 0 1013.2 1.4 81
2020-01-15 14:00:00 13.5 13 Noroeste 21 Noroeste 0 1012.9 1 84
2020-01-15 13:00:00 13.6 12 Noroeste 20 Noroeste 0 1012.7 4.3 77
2020-01-15 12:00:00 13.4 9 Sur 26 Oeste 0 1011.8 5.5 79
2020-01-15 11:00:00 13.2 23 Oeste 48 Oeste 0 1011.9 7 80
2020-01-15 10:00:00 15.6 28 Sudoeste 58 Sur 0 1008.4 3.9 53
2020-01-15 09:00:00 15.2 39 Sur 73 Sur 0 1006.3 2.2 53
2020-01-15 08:00:00 15.6 42 Sudoeste 72 Sur 0 1004.9 1.3 52
2020-01-15 07:00:00 15.5 40 Sudoeste 68 Sur 0 1004.5 0.3 52
2020-01-15 06:00:00 15.2 36 Sudoeste 67 Sur 0 1004.1 -0.2 53
2020-01-15 05:00:00 15 37 Sudoeste 69 Sudoeste 0 1003.6 -0.8 55
2020-01-15 04:00:00 14.9 39 Sur 67 Sur 0 1004.2 -1.4 55
2020-01-15 03:00:00 14.8 38 Sur 62 Sur 0 1004.3 -2.2 54
2020-01-15 02:00:00 15 30 Sur 52 Sur 0 1004.4 -1.5 50
2020-01-15 01:00:00 14.1 27 Sur 55 Sur 0 1005.6 -0.4 56
2020-01-15 00:00:00 14.2 31 Sur 60 Sur 0 1006.5 0.3 54
2020-01-14 23:00:00 14.3 28 Sur 50 Sur 0 1005.9 0.1 51
2020-01-14 22:00:00 14.5 32 Sudoeste 53 Sur 0 1006 0.9 51
2020-01-14 21:00:00 14.7 31 Sudoeste 55 Sudoeste 0 1006.2 1.4 50
2020-01-14 20:00:00 14.7 29 Sudoeste 55 Sudoeste 0 1005.8 1 48
2020-01-14 19:00:00 14.8 33 Sudoeste 60 Sur 0 1005.1 0.2 48
2020-01-14 18:00:00 14.8 28 Sur 61 Sur 0 1004.8 -0.6 47
2020-01-14 17:00:00 14.8 37 Sur 67 Sur 0 1004.8 -0.6 48
2020-01-14 16:00:00 15.7 43 Sur 61 Sur 0 1004.9 -0.5 44
2020-01-14 15:00:00 16 30 Sur 67 Sur 0 1005.4 -0.2 41
2020-01-14 14:00:00 15.1 40 Sur 66 Sur 0 1005.4 -0.7 44
2020-01-14 13:00:00 14 41 Sudoeste 76 Sur 0 1005.4 -0.4 47
2020-01-14 12:00:00 13.2 45 Sur 69 Sur 0 1005.6 -0.1 52
2020-01-14 11:00:00 13.3 41 Sur 60 Sur 0 1006.1 0.6 51
2020-01-14 10:00:00 13.2 38 Sur 61 Sur 0 1005.8 0.7 51
2020-01-14 09:00:00 12.9 40 Sur 60 Sudoeste 0 1005.7 0.2 52
2020-01-14 08:00:00 13.4 33 Sudoeste 50 Sur 0 1005.5 -0.3 49
2020-01-14 07:00:00 13 35 Sur 54 Sur 0 1005.1 -1.1 51
2020-01-14 06:00:00 13.1 32 Sur 54 Sur 0 1005.5 -1 50
2020-01-14 05:00:00 12.9 36 Sur 57 Sur 0 1005.8 -1.1 47
2020-01-14 04:00:00 12.4 33 Sur 48 Sur 0 1006.2 -1.1 48
2020-01-14 03:00:00 12.7 33 Sur 50 Sur 0 1006.5 -1.2 47
2020-01-14 02:00:00 12.8 35 Sur 51 Sur 0 1006.9 -0.9 45
2020-01-14 01:00:00 12.3 33 Sur 48 Sur 0 1007.3 -1 45
2020-01-14 00:00:00 12 35 Sur 54 Sur 0 1007.7 -0.7 42
2020-01-13 23:00:00 12.2 32 Sur 48 Sur 0 1007.8 -0.4 40
2020-01-13 22:00:00 11.7 35 Sur 51 Sur 0 1008.3 0.8 38
2020-01-13 21:00:00 12.4 32 Sudoeste 49 Sudoeste 0 1008.4 0.4 34
2020-01-13 20:00:00 13.2 30 Sur 46 Sur 0 1008.2 -0.5 30
2020-01-13 19:00:00 14.2 28 Sur 40 Sur 0 1007.5 -1.4 25
2020-01-13 18:00:00 14.5 26 Sur 39 Sur 0 1008 -1.9 27
2020-01-13 17:00:00 14.8 22 Sur 35 Sur 0 1008.7 -2.5 25
2020-01-13 16:00:00 15.3 21 Sur 35 Sur 0 1008.9 -3.8 25
2020-01-13 15:00:00 14.6 7 Sudeste 14 Sudeste 0 1009.9 -3.9 61
2020-01-13 14:00:00 14.9 8 Sudeste 15 Sudeste 0 1011.2 -3.5 48
2020-01-13 13:00:00 14.6 7 Sudoeste 22 Sur 0 1012.7 -1.8 39
2020-01-13 12:00:00 11.5 14 Sur 21 Sur 0 1013.8 -0.7 47
2020-01-13 11:00:00 10.6 4 Norte 18 Sur 0 1014.7 -0.4 60
2020-01-13 10:00:00 8.5 8 Sur 11 Sur 0 1014.5 -1 62
2020-01-13 09:00:00 8.8 6 Sudoeste 18 Sur 0 1014.5 -1.4 60
2020-01-13 08:00:00 8.2 9 Sudoeste 14 Sur 0 1015.1 -1.8 62
2020-01-13 07:00:00 8 4 Sudoeste 17 Sur 0 1015.5 -2.3 69
2020-01-13 06:00:00 7.9 9 Sur 13 Sur 0 1015.9 -2.7 70
2020-01-13 05:00:00 8.6 0 Calma 8 Oeste 0 1016.9 -2.3 79
2020-01-13 04:00:00 8.8 5 Sur 14 Sudoeste 0 1017.8 -2.3 72
2020-01-13 03:00:00 8.6 8 Sudoeste 17 Sur 0 1018.6 -2.2 74
2020-01-13 02:00:00 8.1 14 Sur 14 Sur 0 1019.2 -2.2 76
2020-01-13 01:00:00 8.6 10 Sur 13 Sur 0 1020.1 -1.5 75
2020-01-13 00:00:00 9.3 6 Sur 9 Sur 0 1020.8 -1.3 79
2020-01-12 23:00:00 10.3 3 Nordeste 10 Sudoeste 0 1021.4 -1.2 75
2020-01-12 22:00:00 10.1 5 Sur 8 Sur 0 1021.6 -1.1 72
2020-01-12 21:00:00 10.7 4 Sur 5 Sur 0 1022.1 -0.4 74
2020-01-12 20:00:00 11.1 2 Sudeste 5 Sudeste 0 1022.6 -0.1 71
2020-01-12 19:00:00 11.1 5 Este 8 Sudeste 0 1022.7 -0.1 73
2020-01-12 18:00:00 11.6 5 Este 8 Nordeste 0 1022.5 -0.2 75
2020-01-12 17:00:00 12.7 4 Nordeste 6 Este 0 1022.7 -0.7 71
2020-01-12 16:00:00 13.4 4 Nordeste 6 Nordeste 0 1022.8 -1.5 69
2020-01-12 15:00:00 14.1 4 Este 8 Sudeste 0 1022.7 -2.5 67
2020-01-12 14:00:00 14.5 6 Sudeste 10 Sudeste 0 1023.4 -1.8 50
2020-01-12 13:00:00 13.9 7 Sudeste 10 Sudeste 0 1024.3 -0.5 52
2020-01-12 12:00:00 11.8 4 Sudeste 8 Sur 0 1025.2 0.9 64
2020-01-12 11:00:00 10.5 7 Sur 15 Sur 0 1025.2 0.8 68
2020-01-12 10:00:00 8.4 14 Sur 19 Sur 0 1024.8 0.6 64
2020-01-12 09:00:00 7.4 15 Sur 18 Sur 0 1024.3 0.6 68
2020-01-12 08:00:00 7.9 13 Sur 15 Sur 0 1024.4 0.8 68
2020-01-12 07:00:00 7.9 11 Sudoeste 13 Sudoeste 0 1024.2 0.4 68
2020-01-12 06:00:00 8.8 10 Sudoeste 14 Sudoeste 0 1023.7 -0.1 72
2020-01-12 05:00:00 8.5 11 Sudoeste 16 Sudoeste 0 1023.6 0 74
2020-01-12 04:00:00 8.6 13 Sudoeste 19 Sudoeste 0 1023.8 0 75
2020-01-12 03:00:00 9.3 12 Sudoeste 21 Oeste 0 1023.8 -0.2 74
2020-01-12 02:00:00 9.4 13 Sudoeste 22 Sudoeste 0 1023.6 -0.6 69
2020-01-12 01:00:00 9.1 12 Sudoeste 23 Oeste 0 1023.8 -0.2 68
2020-01-12 00:00:00 9.3 12 Sudoeste 23 Sudoeste 0 1024 0 71
2020-01-11 23:00:00 8.6 11 Sudoeste 20 Sudoeste 0 1024.2 0.3 73
2020-01-11 22:00:00 9 14 Sudoeste 20 Sudoeste 0 1024 0.1 81
2020-01-11 21:00:00 9.3 8 Sudoeste 13 Sudoeste 0 1024 0.7 84
2020-01-11 20:00:00 9.6 10 Sur 12 Sur 0 1023.9 0.8 84
2020-01-11 19:00:00 10.1 6 Sudeste 15 Sudeste 0 1023.9 1 84
2020-01-11 18:00:00 10.7 12 Sudeste 23 Este 0 1023.3 0.1 79
2020-01-11 17:00:00 11.9 17 Este 23 Este 0 1023.1 -0.8 73
2020-01-11 16:00:00 12.2 18 Este 24 Este 0 1022.9 -2.2 71
2020-01-11 15:00:00 12.6 15 Este 22 Este 0 1023.2 -2.9 75
2020-01-11 14:00:00 12.6 9 Este 14 Este 0 1023.9 -2.6 73
2020-01-11 13:00:00 12.3 8 Este 14 Sudeste 0 1025.1 -1.1 66
2020-01-11 12:00:00 12.2 6 Sudeste 14 Sudeste 0 1026.1 -0.3 63
2020-01-11 11:00:00 10.1 12 Sur 18 Sur 0 1026.5 0.1 71
2020-01-11 10:00:00 8.3 16 Sur 19 Sur 0 1026.2 -0.2 80
2020-01-11 09:00:00 6.9 14 Sur 15 Sur 0 1026.4 -0.2 85
2020-01-11 08:00:00 7.1 14 Sur 18 Sur 0 1026.4 -0.4 85
2020-01-11 07:00:00 6.4 16 Sur 18 Sur 0 1026.4 -0.7 88
2020-01-11 06:00:00 7.5 9 Sur 15 Sudoeste 0 1026.6 -0.6 85
2020-01-11 05:00:00 7.2 12 Sur 16 Sur 0 1026.8 -0.4 88
2020-01-11 04:00:00 7.2 13 Sur 17 Sur 0 1027.1 -0.6 89
2020-01-11 03:00:00 7.8 14 Sur 17 Sur 0 1027.2 -0.7 89
2020-01-11 02:00:00 8.2 13 Sur 17 Sudoeste 0 1027.2 -0.3 90
2020-01-11 01:00:00 8.5 10 Sudoeste 17 Sudoeste 0 1027.7 0 92
2020-01-11 00:00:00 8.7 13 Sudoeste 18 Sudoeste 0 1027.9 0.6 92
2020-01-10 23:00:00 9 10 Sudoeste 18 Sudoeste 0 1027.5 0.4 90
2020-01-10 22:00:00 9.1 9 Sudoeste 18 Sudoeste 0 1027.7 0.9 89
2020-01-10 21:00:00 9.2 12 Sudoeste 19 Sudoeste 0 1027.3 1.1 90
2020-01-10 20:00:00 9.5 12 Sudoeste 18 Sudoeste 0 1027.1 1.1 90
2020-01-10 19:00:00 10.2 10 Sudoeste 13 Sur 0 1026.8 1.3 88
2020-01-10 18:00:00 10.9 6 Nordeste 24 Nordeste 0 1026.2 1 82
2020-01-10 17:00:00 11.5 4 Nordeste 26 Norte 0.8 1026 0.9 77
2020-01-10 16:00:00 12.6 10 Norte 22 Norte 0 1025.5 0 75
2020-01-10 15:00:00 12.6 11 Noroeste 16 Noroeste 0 1025.2 -0.4 73
2020-01-10 14:00:00 11.6 16 Norte 43 Noroeste 0 1025.1 0 71
2020-01-10 13:00:00 12.1 22 Noroeste 34 Noroeste 0 1025.5 1.4 73
2020-01-10 12:00:00 10.4 18 Noroeste 46 Norte 0.4 1025.6 2.2 83
2020-01-10 11:00:00 10.7 25 Oeste 44 Oeste 1.2 1025.1 2 87
2020-01-10 10:00:00 11 28 Oeste 40 Oeste 0.4 1024.1 1.4 86
2020-01-10 09:00:00 10.2 30 Oeste 50 Oeste 0 1023.4 1.5 84
2020-01-10 08:00:00 10.3 33 Oeste 53 Noroeste 0.8 1023.1 2.1 86
2020-01-10 07:00:00 10.5 33 Oeste 50 Oeste 0 1022.7 1.7 81
2020-01-10 06:00:00 10.4 31 Oeste 53 Oeste 0 1021.9 1.2 80
2020-01-10 05:00:00 10.7 38 Oeste 58 Oeste 0 1021 1.2 79
2020-01-10 04:00:00 10.5 38 Oeste 55 Oeste 0.2 1021 1.1 79
2020-01-10 03:00:00 10.8 36 Oeste 60 Oeste 0 1020.7 1.2 76
2020-01-10 02:00:00 11.5 38 Oeste 55 Oeste 0 1019.8 0.7 71
2020-01-10 01:00:00 10.9 39 Noroeste 64 Oeste 0 1019.9 1.4 80
2020-01-10 00:00:00 11.5 41 Oeste 66 Noroeste 0 1019.5 1.7 74
2020-01-09 23:00:00 12.4 41 Oeste 67 Oeste 0 1019.1 1.5 65
2020-01-09 22:00:00 12.4 39 Oeste 59 Oeste 0 1018.5 1.4 66
2020-01-09 21:00:00 12.2 37 Oeste 56 Oeste 0 1017.8 0.8 71
2020-01-09 20:00:00 12.2 24 Oeste 57 Oeste 0 1017.6 1.3 75
2020-01-09 19:00:00 12.6 37 Oeste 61 Oeste 0 1017.1 1.9 71
2020-01-09 18:00:00 12 35 Oeste 61 Oeste 0 1017 6.4 84
2020-01-09 17:00:00 12.7 41 Oeste 68 Oeste 0 1016.3 6.2 79
2020-01-09 16:00:00 12.6 51 Noroeste 81 Noroeste 0 1015.2 3.7 76
2020-01-09 15:00:00 20 22 Sudoeste 38 Sur 0 1010.6 -2.6 43
2020-01-09 14:00:00 20 21 Sur 32 Sur 0 1010.1 -3.7 42
2020-01-09 13:00:00 19.2 23 Sur 34 Sur 0 1011.5 -3.1 47
2020-01-09 12:00:00 17.9 21 Sur 30 Sur 0 1013.2 -1.4 52
2020-01-09 11:00:00 15.8 23 Sur 33 Sur 0 1013.8 -1.8 53
2020-01-09 10:00:00 14.7 26 Sur 33 Sur 0 1014.6 -1.1 50
2020-01-09 09:00:00 13.4 23 Sur 31 Sur 0 1014.6 -1.4 53
2020-01-09 08:00:00 11.8 6 Noroeste 20 Sudoeste 0 1015.6 -0.5 74
2020-01-09 07:00:00 12.2 10 Oeste 16 Sur 0 1015.7 -1.8 62
2020-01-09 06:00:00 12.6 8 Sudoeste 27 Sur 0 1016 -1.8 63
2020-01-09 05:00:00 10.8 19 Sur 26 Sur 0 1016.1 -2 76
2020-01-09 04:00:00 10.3 8 Sur 13 Sudoeste 0 1017.5 -1.2 76
2020-01-09 03:00:00 10.1 7 Sudoeste 11 Sudoeste 0 1017.8 -1.9 76
2020-01-09 02:00:00 10.9 6 Sudoeste 14 Sudoeste 0 1018.1 -2.2 73
2020-01-09 01:00:00 11.6 11 Sudoeste 14 Sur 0 1018.7 -1.6 71
2020-01-09 00:00:00 10.8 11 Sur 14 Sur 0 1019.7 -0.2 76
2020-01-08 23:00:00 11.1 5 Sur 10 Oeste 0 1020.3 -0.2 81
2020-01-08 22:00:00 11.3 5 Sudoeste 15 Sudeste 0 1020.3 -0.7 76
2020-01-08 21:00:00 11.3 7 Sudeste 11 Sudeste 0 1019.9 -1.2 73
2020-01-08 20:00:00 11.6 5 Este 9 Sudeste 0 1020.5 -0.7 81
2020-01-08 19:00:00 12.1 5 Este 11 Este 0 1021 -0.4 84
2020-01-08 18:00:00 12.3 7 Este 17 Este 0 1021.1 -0.7 76
2020-01-08 17:00:00 13.2 13 Este 19 Este 0 1021.2 -1 72
2020-01-08 16:00:00 14.2 12 Este 18 Este 0 1021.4 -1.7 60
2020-01-08 15:00:00 14.6 9 Este 11 Este 0 1021.8 -2 61
2020-01-08 14:00:00 15.8 7 Este 9 Este 0 1022.2 -2.1 47
2020-01-08 13:00:00 14.6 3 Este 8 Sudeste 0 1023.1 -1 54
2020-01-08 12:00:00 13.4 2 Este 5 Noroeste 0 1023.8 -0.1 65
2020-01-08 11:00:00 11.8 5 Noroeste 12 Sudoeste 0 1024.3 0.5 63
2020-01-08 10:00:00 12.4 10 Sudoeste 15 Sudoeste 0 1024.1 0.5 43
2020-01-08 09:00:00 10.7 9 Sudoeste 13 Sudoeste 0 1023.9 0.5 49
2020-01-08 08:00:00 10.9 5 Sudoeste 10 Sudoeste 0 1023.8 0.3 52
2020-01-08 07:00:00 10.9 2 Este 13 Oeste 0 1023.6 -0.2 71
2020-01-08 06:00:00 9.9 3 Oeste 7 Sudoeste 0 1023.4 -0.5 69
2020-01-08 05:00:00 10.4 6 Sudoeste 15 Sudoeste 0 1023.5 -0.4 70
2020-01-08 04:00:00 10.2 8 Sudoeste 9 Sur 0 1023.8 -0.3 76
2020-01-08 03:00:00 9.8 4 Sudoeste 9 Sudoeste 0 1023.9 -0.5 83
2020-01-08 02:00:00 10.3 3 Norte 8 Sudoeste 0 1023.9 -0.8 86
2020-01-08 01:00:00 10.6 6 Sudoeste 10 Sudoeste 0 1024.1 -0.6 80
2020-01-08 00:00:00 10.3 9 Sudoeste 10 Sur 0 1024.4 -0.3 85
2020-01-07 23:00:00 10.8 8 Sudoeste 14 Sudoeste 0 1024.7 0 83
2020-01-07 22:00:00 10.9 10 Sudoeste 14 Sudoeste 0 1024.7 0.4 81
2020-01-07 21:00:00 10 10 Sur 12 Sur 0 1024.7 0.8 88
2020-01-07 20:00:00 10.7 8 Sur 15 Sudoeste 0 1024.7 0.6 87
2020-01-07 19:00:00 11.1 12 Sudoeste 18 Sudoeste 0 1024.3 0.4 89
2020-01-07 18:00:00 11.5 13 Sudoeste 19 Oeste 0 1023.9 0.2 88
2020-01-07 17:00:00 12.1 16 Oeste 22 Oeste 0 1024.1 -0.2 84
2020-01-07 16:00:00 13 13 Oeste 21 Oeste 0 1023.9 -0.8 78
2020-01-07 15:00:00 12.8 14 Oeste 21 Oeste 0 1023.7 -1.6 75
2020-01-07 14:00:00 12.5 14 Oeste 19 Oeste 0 1024.3 -1.3 71
2020-01-07 13:00:00 12.1 12 Oeste 15 Oeste 0 1024.7 -0.4 68
2020-01-07 12:00:00 12.8 6 Sudeste 15 Este 0 1025.3 1 67
2020-01-07 11:00:00 10.9 5 Sudeste 16 Sudeste 0 1025.6 1.5 76
2020-01-07 10:00:00 9.4 5 Este 13 Sur 0 1025.1 0.8 79
2020-01-07 09:00:00 8.7 11 Sudeste 14 Sudeste 0 1024.3 -0.1 76
2020-01-07 08:00:00 8.9 9 Sur 13 Sur 0 1024.1 -0.5 73
2020-01-07 07:00:00 8.4 8 Sur 17 Sur 0 1024.3 -0.6 74
2020-01-07 06:00:00 8.7 13 Sur 16 Sur 0 1024.4 -0.6 75
2020-01-07 05:00:00 8.3 10 Sur 13 Sur 0 1024.6 -0.5 77
2020-01-07 04:00:00 8.8 11 Sur 13 Sur 0 1024.9 -0.4 76
2020-01-07 03:00:00 9.2 10 Sudoeste 17 Sur 0 1025 -1 76
2020-01-07 02:00:00 8.6 15 Sur 21 Sur 0 1025.1 -0.7 81
2020-01-07 01:00:00 8.8 16 Sur 20 Sur 0 1025.3 0.1 82
2020-01-07 00:00:00 9.7 13 Sur 16 Sur 0 1026 0.5 76
2020-01-06 23:00:00 9.7 13 Sudoeste 21 Sur 0 1025.8 0.4 79
2020-01-06 22:00:00 9.5 16 Sudoeste 22 Sudoeste 0 1025.2 0.3 82
2020-01-06 21:00:00 9.5 13 Sudoeste 19 Sudoeste 0 1025.5 1.9 86
2020-01-06 20:00:00 10.1 10 Sudoeste 18 Oeste 0 1025.4 2.9 86
2020-01-06 19:00:00 10.2 12 Oeste 15 Sudoeste 0 1024.9 2.7 88
2020-01-06 18:00:00 10.4 10 Oeste 15 Sudoeste 0 1023.6 2 84
2020-01-06 17:00:00 11.4 10 Sudoeste 22 Oeste 0 1022.5 0.7 81
2020-01-06 16:00:00 11.8 15 Oeste 24 Oeste 0 1022.2 0.2 82
2020-01-06 15:00:00 12.5 18 Oeste 27 Oeste 0 1021.6 -0.6 79
2020-01-06 14:00:00 12.6 19 Oeste 27 Noroeste 0 1021.8 -0.3 78
2020-01-06 13:00:00 12.4 17 Oeste 26 Oeste 0 1022 -0.3 77
2020-01-06 12:00:00 12.1 13 Oeste 26 Sudoeste 0 1022.2 0.6 76
2020-01-06 11:00:00 11.2 15 Sudoeste 31 Oeste 0 1022.1 1.2 79
2020-01-06 10:00:00 9.2 17 Sudoeste 27 Oeste 0 1022.3 1.8 85